createdAt,value
2022-11-23T00:01:34.007Z,5.40
2022-11-23T00:04:10.358Z,4.93
2022-11-23T00:06:38.496Z,4.00
2022-11-23T00:09:06.189Z,4.65
2022-11-23T00:11:35.781Z,4.03
2022-11-23T00:14:03.437Z,5.15
2022-11-23T00:16:31.376Z,4.00
2022-11-23T00:19:01.306Z,4.30
2022-11-23T00:21:31.111Z,3.70
2022-11-23T00:23:58.659Z,5.50
2022-11-23T00:26:26.149Z,3.72
2022-11-23T00:28:53.943Z,4.20
2022-11-23T00:31:21.816Z,4.07
2022-11-23T00:33:51.713Z,4.35
2022-11-23T00:36:20.246Z,3.83
2022-11-23T00:38:48.697Z,5.00
2022-11-23T00:41:21.624Z,3.70
2022-11-23T00:43:49.590Z,3.38
2022-11-23T00:46:20.921Z,3.33
2022-11-23T00:48:50.685Z,3.30
2022-11-23T00:51:21.060Z,3.72
2022-11-23T00:53:50.512Z,3.03
2022-11-23T00:56:18.901Z,3.60
2022-11-23T00:58:54.242Z,3.78
2022-11-23T01:01:25.402Z,3.28
2022-11-23T01:03:55.425Z,3.05
2022-11-23T01:06:28.982Z,2.85
2022-11-23T01:08:59.370Z,3.00
2022-11-23T01:11:28.724Z,3.15
2022-11-23T01:13:56.339Z,3.08
2022-11-23T01:16:26.058Z,2.10
2022-11-23T01:18:58.142Z,2.92
2022-11-23T01:21:28.030Z,2.53
2022-11-23T01:23:56.227Z,2.25
2022-11-23T01:26:24.216Z,2.10
2022-11-23T01:28:52.248Z,2.95
2022-11-23T01:31:24.869Z,1.90
2022-11-23T01:34:02.886Z,2.00
2022-11-23T01:36:32.532Z,2.10
2022-11-23T01:39:01.496Z,2.10
2022-11-23T01:41:32.772Z,2.20
2022-11-23T01:44:00.787Z,2.03
2022-11-23T01:46:28.254Z,1.92
2022-11-23T01:49:01.123Z,2.05
2022-11-23T01:51:35.701Z,2.10
2022-11-23T01:54:10.856Z,1.98
2022-11-23T01:56:42.103Z,1.55
2022-11-23T01:59:14.962Z,2.17
2022-11-23T02:01:43.670Z,1.88
2022-11-23T02:04:16.707Z,1.85
2022-11-23T02:06:47.943Z,1.73
2022-11-23T02:09:17.205Z,1.98
2022-11-23T02:11:44.881Z,1.75
2022-11-23T02:14:17.873Z,1.75
2022-11-23T02:16:49.613Z,1.80
2022-11-23T02:19:39.276Z,1.95
2022-11-23T02:22:12.679Z,1.60
2022-11-23T02:24:49.318Z,1.30
2022-11-23T02:29:44.461Z,1.80
2022-11-23T02:32:11.870Z,2.17
2022-11-23T02:34:39.316Z,2.10
2022-11-23T02:37:08.532Z,1.85
2022-11-23T02:39:37.851Z,1.60
2022-11-23T02:42:06.087Z,1.70
2022-11-23T02:45:08.332Z,2.13
2022-11-23T02:47:37.745Z,2.28
2022-11-23T02:50:05.439Z,1.88
2022-11-23T02:52:32.895Z,1.60
2022-11-23T02:55:00.326Z,2.10
2022-11-23T02:57:27.772Z,2.08
2022-11-23T02:59:55.201Z,2.00
2022-11-23T03:02:22.691Z,1.83
2022-11-23T03:04:50.135Z,1.80
2022-11-23T03:07:20.816Z,2.13
2022-11-23T03:09:49.881Z,2.03
2022-11-23T03:12:17.643Z,2.78
2022-11-23T03:14:45.192Z,2.03
2022-11-23T03:17:12.930Z,1.92
2022-11-23T03:19:42.126Z,2.28
2022-11-23T03:22:11.395Z,1.85
2022-11-23T03:24:38.954Z,2.60
2022-11-23T03:27:09.058Z,2.30
2022-11-23T03:29:36.515Z,2.38
2022-11-23T03:32:10.798Z,2.00
2022-11-23T03:34:39.307Z,2.42
2022-11-23T03:37:06.740Z,2.33
2022-11-23T03:39:34.570Z,2.08
2022-11-23T03:42:08.036Z,2.13
2022-11-23T03:44:37.182Z,2.17
2022-11-23T03:47:05.676Z,3.20
2022-11-23T03:49:35.601Z,2.53
2022-11-23T03:52:04.223Z,2.58
2022-11-23T03:54:31.636Z,2.88
2022-11-23T03:57:00.331Z,3.08
2022-11-23T03:59:27.822Z,2.45
2022-11-23T04:01:55.786Z,2.20
2022-11-23T04:04:27.486Z,2.40
2022-11-23T04:07:09.189Z,2.40
2022-11-23T04:09:41.776Z,3.40
2022-11-23T04:12:32.007Z,2.17
2022-11-23T04:14:59.531Z,2.60
2022-11-23T04:17:26.931Z,2.13
2022-11-23T04:19:54.521Z,3.53
2022-11-23T04:22:21.932Z,2.50
2022-11-23T04:24:49.497Z,3.35
2022-11-23T04:27:16.954Z,3.03
2022-11-23T04:29:44.596Z,2.15
2022-11-23T04:32:12.129Z,3.50
2022-11-23T04:34:40.036Z,3.13
2022-11-23T04:37:13.204Z,3.63
2022-11-23T04:39:43.533Z,3.50
2022-11-23T04:42:40.124Z,3.10
2022-11-23T04:45:08.349Z,3.33
2022-11-23T04:47:36.607Z,3.40
2022-11-23T04:50:08.574Z,3.83
2022-11-23T04:52:36.101Z,3.40
2022-11-23T04:55:08.091Z,3.63
2022-11-23T04:57:39.976Z,4.15
2022-11-23T05:00:08.243Z,3.78
2022-11-23T05:02:37.490Z,3.47
2022-11-23T05:05:23.425Z,3.35
2022-11-23T05:07:50.972Z,4.70
2022-11-23T05:10:21.061Z,3.95
2022-11-23T05:12:48.967Z,3.55
2022-11-23T05:15:17.213Z,4.10
2022-11-23T05:17:45.796Z,3.25
2022-11-23T05:20:21.589Z,3.17
2022-11-23T05:22:49.522Z,4.68
2022-11-23T05:25:21.066Z,3.17
2022-11-23T05:27:55.954Z,3.20
2022-11-23T05:30:23.647Z,4.15
2022-11-23T05:32:51.295Z,5.18
2022-11-23T05:35:20.248Z,5.38
2022-11-23T05:37:47.716Z,3.00
2022-11-23T05:40:15.231Z,3.28
2022-11-23T05:42:43.455Z,3.05
2022-11-23T05:45:22.517Z,4.43
2022-11-23T05:47:55.678Z,2.85
2022-11-23T05:50:38.583Z,3.72
2022-11-23T05:53:28.056Z,4.35
2022-11-23T05:56:03.057Z,3.33
2022-11-23T05:58:35.461Z,3.28
2022-11-23T06:01:03.232Z,2.40
2022-11-23T06:03:34.897Z,2.47
2022-11-23T06:06:02.543Z,2.30
2022-11-23T06:08:37.902Z,2.30
2022-11-23T06:11:06.354Z,2.10
2022-11-23T06:13:34.113Z,1.90
2022-11-23T06:16:02.610Z,1.40
2022-11-23T06:18:39.788Z,1.25
2022-11-23T06:21:09.647Z,1.65
2022-11-23T06:23:37.164Z,1.30
2022-11-23T06:26:04.746Z,1.40
2022-11-23T06:28:35.821Z,1.67
2022-11-23T06:31:06.710Z,1.48
2022-11-23T06:33:35.699Z,1.25
2022-11-23T06:36:04.181Z,1.23
2022-11-23T06:38:37.635Z,1.17
2022-11-23T06:41:11.580Z,1.27
2022-11-23T06:43:40.211Z,1.42
2022-11-23T06:46:08.290Z,1.27
2022-11-23T06:48:43.039Z,1.30
2022-11-23T06:51:12.314Z,1.90
2022-11-23T06:53:40.372Z,2.13
2022-11-23T06:56:09.774Z,1.92
2022-11-23T06:58:37.554Z,1.38
2022-11-23T07:01:10.039Z,1.80
2022-11-23T07:03:49.859Z,1.30
2022-11-23T07:06:28.102Z,2.30
2022-11-23T07:08:59.125Z,2.03
2022-11-23T07:11:45.121Z,1.60
2022-11-23T07:14:12.873Z,1.83
2022-11-23T07:16:43.089Z,1.42
2022-11-23T07:19:10.937Z,1.48
2022-11-23T07:21:38.425Z,2.05
2022-11-23T07:24:06.388Z,1.80
2022-11-23T07:26:33.859Z,2.05
2022-11-23T07:29:01.985Z,1.70
2022-11-23T07:31:29.532Z,1.40
2022-11-23T07:33:57.065Z,1.95
2022-11-23T07:36:24.824Z,1.75
2022-11-23T07:38:52.319Z,2.13
2022-11-23T07:41:21.249Z,1.75
2022-11-23T07:44:09.609Z,1.60
2022-11-23T07:46:37.371Z,2.13
2022-11-23T07:49:04.911Z,1.50
2022-11-23T07:51:32.629Z,2.00
2022-11-23T07:54:00.047Z,2.25
2022-11-23T07:56:27.563Z,1.75
2022-11-23T07:58:54.977Z,1.27
2022-11-23T08:01:22.504Z,1.83
2022-11-23T08:03:50.129Z,1.50
2022-11-23T08:06:17.815Z,1.25
2022-11-23T08:08:45.300Z,1.85
2022-11-23T08:11:14.865Z,1.58
2022-11-23T08:13:42.724Z,1.60
2022-11-23T08:16:10.108Z,1.77
2022-11-23T08:18:37.593Z,2.00
2022-11-23T08:21:05.193Z,2.00
2022-11-23T08:23:32.822Z,1.90
2022-11-23T08:26:06.573Z,1.98
2022-11-23T08:28:38.725Z,1.92
2022-11-23T08:31:15.140Z,2.17
2022-11-23T08:33:42.955Z,1.90
2022-11-23T08:36:10.439Z,1.90
2022-11-23T08:38:37.979Z,1.63
2022-11-23T08:41:05.747Z,1.60
2022-11-23T08:43:33.489Z,1.50
2022-11-23T08:46:06.821Z,1.30
2022-11-23T08:51:04.277Z,1.45
2022-11-23T08:53:31.748Z,2.08
2022-11-23T08:56:03.414Z,1.55
2022-11-23T08:58:31.735Z,1.52
2022-11-23T09:00:59.582Z,1.55
2022-11-23T09:03:27.019Z,1.65
2022-11-23T09:05:58.819Z,1.58
2022-11-23T09:08:26.377Z,1.50
2022-11-23T09:10:53.838Z,1.88
2022-11-23T09:13:21.330Z,1.55
2022-11-23T09:15:48.796Z,2.30
2022-11-23T09:18:16.356Z,1.85
2022-11-23T09:20:43.766Z,1.70
2022-11-23T09:23:14.220Z,1.92
2022-11-23T09:25:43.331Z,1.58
2022-11-23T09:28:12.747Z,1.33
2022-11-23T09:30:40.741Z,1.85
2022-11-23T09:33:08.852Z,1.90
2022-11-23T09:35:40.748Z,2.08
2022-11-23T09:38:11.336Z,2.13
2022-11-23T09:40:41.613Z,2.35
2022-11-23T09:43:42.842Z,1.55
2022-11-23T09:46:19.899Z,1.25
2022-11-23T09:49:02.392Z,1.90
2022-11-23T09:51:29.938Z,1.95
2022-11-23T09:54:02.860Z,2.40
2022-11-23T09:56:33.910Z,1.83
2022-11-23T09:59:12.519Z,2.08
2022-11-23T10:01:41.017Z,2.08
2022-11-23T10:04:18.802Z,2.30
2022-11-23T10:06:55.138Z,1.75
2022-11-23T10:09:36.244Z,1.73
2022-11-23T10:12:25.136Z,2.72
2022-11-23T10:15:14.235Z,1.95
2022-11-23T10:18:09.329Z,2.65
2022-11-23T10:20:58.430Z,1.88
2022-11-23T10:23:40.696Z,2.30
2022-11-23T10:26:17.594Z,2.38
2022-11-23T10:28:46.798Z,2.30
2022-11-23T10:31:20.824Z,2.25
2022-11-23T10:34:04.647Z,2.90
2022-11-23T10:36:36.349Z,2.63
2022-11-23T10:39:18.697Z,1.80
2022-11-23T10:41:46.859Z,2.58
2022-11-23T10:44:50.829Z,2.15
2022-11-23T10:48:00.325Z,2.50
2022-11-23T10:50:37.753Z,2.28
2022-11-23T10:53:23.101Z,2.45
2022-11-23T10:55:55.302Z,2.08
2022-11-23T10:58:35.084Z,2.15
2022-11-23T11:01:06.596Z,2.88
2022-11-23T11:03:35.228Z,2.15
2022-11-23T11:06:11.203Z,2.15
2022-11-23T11:09:00.359Z,2.53
2022-11-23T11:11:33.798Z,2.35
2022-11-23T11:14:13.994Z,2.92
2022-11-23T11:17:02.099Z,2.35
2022-11-23T11:19:30.886Z,3.20
2022-11-23T11:22:00.593Z,2.15
2022-11-23T11:24:37.745Z,3.30
2022-11-23T11:27:25.819Z,3.13
2022-11-23T11:30:02.504Z,2.60
2022-11-23T11:32:56.143Z,2.60
2022-11-23T11:35:28.051Z,3.15
2022-11-23T11:38:08.190Z,2.40
2022-11-23T11:40:47.991Z,3.08
2022-11-23T11:43:32.432Z,2.95
2022-11-23T11:46:30.372Z,2.63
2022-11-23T11:49:13.434Z,3.35
2022-11-23T11:51:46.310Z,2.53
2022-11-23T11:55:02.582Z,3.10
2022-11-23T11:57:40.250Z,2.97
2022-11-23T12:00:14.403Z,2.78
2022-11-23T12:03:25.755Z,2.92
2022-11-23T12:05:55.838Z,2.28
2022-11-23T12:08:55.139Z,2.92
2022-11-23T12:11:23.013Z,3.65
2022-11-23T12:13:52.425Z,3.42
2022-11-23T12:16:45.523Z,2.75
2022-11-23T12:19:43.402Z,3.90
2022-11-23T12:22:20.744Z,3.05
2022-11-23T12:25:17.016Z,2.75
2022-11-23T12:27:51.113Z,3.00
2022-11-23T12:30:36.486Z,3.42
2022-11-23T12:33:07.143Z,3.97
2022-11-23T12:36:08.728Z,2.95
2022-11-23T12:38:56.283Z,2.90
2022-11-23T12:41:34.288Z,3.65
2022-11-23T12:44:39.265Z,3.83
2022-11-23T12:47:09.824Z,3.22
2022-11-23T12:49:54.937Z,3.30
2022-11-23T12:52:59.215Z,3.08
2022-11-23T12:55:44.722Z,3.83
2022-11-23T12:58:23.822Z,3.88
2022-11-23T13:01:06.147Z,3.83
2022-11-23T13:04:12.048Z,4.28
2022-11-23T13:10:25.711Z,4.00
2022-11-23T13:13:28.387Z,4.63
2022-11-23T13:16:27.120Z,3.28
2022-11-23T13:19:18.974Z,4.93
2022-11-23T13:21:47.731Z,4.30
2022-11-23T13:24:25.286Z,4.38
2022-11-23T13:27:14.499Z,4.00
2022-11-23T13:29:51.161Z,4.88
2022-11-23T13:32:54.257Z,5.40
2022-11-23T13:35:21.826Z,5.25
2022-11-23T13:37:58.318Z,3.85
2022-11-23T13:40:45.685Z,3.55
2022-11-23T13:43:32.400Z,3.78
2022-11-23T13:46:29.183Z,4.53
2022-11-23T13:48:59.874Z,3.80
2022-11-23T13:51:33.570Z,4.00
2022-11-23T13:54:21.711Z,4.28
2022-11-23T13:57:00.455Z,4.13
2022-11-23T13:59:34.942Z,4.00
2022-11-23T14:02:09.054Z,3.15
2022-11-23T14:04:44.672Z,3.80
2022-11-23T14:07:32.244Z,5.53
2022-11-23T14:10:21.122Z,4.05
2022-11-23T14:13:15.793Z,5.25
2022-11-23T14:15:51.728Z,4.30
2022-11-23T14:21:53.631Z,3.25
2022-11-23T14:24:45.753Z,4.20
2022-11-23T14:30:44.540Z,3.50
2022-11-23T14:33:22.512Z,2.90
2022-11-23T14:36:20.047Z,2.80
2022-11-23T14:39:10.131Z,3.25
2022-11-23T14:41:41.224Z,4.07
2022-11-23T14:44:14.961Z,3.90
2022-11-23T14:47:05.578Z,3.42
2022-11-23T14:49:33.794Z,3.08
2022-11-23T14:52:03.368Z,3.65
2022-11-23T14:54:32.382Z,2.67
2022-11-23T14:57:04.051Z,2.83
2022-11-23T14:59:37.774Z,3.38
2022-11-23T15:02:15.871Z,2.75
2022-11-23T15:05:06.903Z,2.97
2022-11-23T15:07:51.888Z,3.20
2022-11-23T15:10:37.833Z,3.10
2022-11-23T15:13:28.676Z,2.42
2022-11-23T15:15:58.280Z,2.35
2022-11-23T15:18:39.160Z,2.40
2022-11-23T15:21:12.674Z,3.38
2022-11-23T15:23:46.582Z,2.50
2022-11-23T15:26:47.963Z,2.08
2022-11-23T15:29:37.411Z,2.55
2022-11-23T15:32:33.441Z,2.80
2022-11-23T15:35:06.943Z,2.72
2022-11-23T15:37:44.987Z,2.85
2022-11-23T15:40:17.766Z,2.95
2022-11-23T15:42:48.391Z,2.55
2022-11-23T15:45:36.997Z,2.63
2022-11-23T15:48:09.734Z,2.03
2022-11-23T15:50:50.808Z,3.30
2022-11-23T15:53:19.156Z,2.30
2022-11-23T15:55:47.557Z,2.50
2022-11-23T15:58:18.611Z,2.85
2022-11-23T16:00:52.828Z,3.00
2022-11-23T16:03:40.313Z,2.33
2022-11-23T16:06:13.751Z,3.08
2022-11-23T16:08:41.395Z,2.80
2022-11-23T16:11:29.047Z,2.95
2022-11-23T16:14:14.647Z,2.80
2022-11-23T16:16:45.982Z,2.70
2022-11-23T16:19:23.116Z,2.78
2022-11-23T16:21:59.147Z,3.38
2022-11-23T16:24:30.470Z,2.60
2022-11-23T16:26:58.215Z,2.80
2022-11-23T16:29:36.530Z,2.75
2022-11-23T16:32:07.390Z,3.67
2022-11-23T16:34:35.338Z,2.30
2022-11-23T16:37:06.019Z,2.55
2022-11-23T16:39:33.571Z,1.60
2022-11-23T16:42:01.073Z,2.20
2022-11-23T16:44:29.757Z,1.88
2022-11-23T16:47:22.365Z,1.90
2022-11-23T16:49:50.568Z,1.95
2022-11-23T16:52:18.723Z,2.45
2022-11-23T16:54:46.571Z,2.17
2022-11-23T16:57:34.500Z,2.33
2022-11-23T17:00:07.211Z,3.22
2022-11-23T17:02:34.782Z,2.47
2022-11-23T17:05:02.832Z,2.40
2022-11-23T17:07:30.449Z,2.20
2022-11-23T17:09:59.221Z,1.90
2022-11-23T17:12:26.773Z,1.98
2022-11-23T17:14:54.353Z,1.80
2022-11-23T17:17:22.703Z,1.90
2022-11-23T17:19:51.521Z,1.90
2022-11-23T17:22:20.215Z,2.30
2022-11-23T17:24:48.982Z,2.38
2022-11-23T17:27:20.898Z,2.70
2022-11-23T17:29:55.686Z,1.95
2022-11-23T17:32:23.167Z,2.17
2022-11-23T17:34:50.603Z,2.28
2022-11-23T17:37:21.280Z,2.30
2022-11-23T17:39:49.760Z,2.30
2022-11-23T17:42:17.527Z,2.28
2022-11-23T17:44:45.126Z,2.85
2022-11-23T17:47:30.155Z,4.80
2022-11-23T17:49:58.652Z,3.33
2022-11-23T17:52:26.504Z,3.10
2022-11-23T17:54:53.915Z,2.85
2022-11-23T17:57:26.434Z,2.40
2022-11-23T17:59:54.668Z,1.65
2022-11-23T18:02:22.116Z,1.55
2022-11-23T18:04:49.602Z,1.73
2022-11-23T18:07:17.285Z,1.92
2022-11-23T18:09:44.899Z,1.67
2022-11-23T18:12:12.502Z,2.08
2022-11-23T18:14:39.987Z,2.08
2022-11-23T18:17:07.461Z,2.30
2022-11-23T18:19:35.202Z,2.25
2022-11-23T18:22:02.865Z,2.47
2022-11-23T18:24:30.309Z,2.10
2022-11-23T18:26:57.700Z,2.58
2022-11-23T18:29:25.173Z,2.17
2022-11-23T18:31:52.987Z,2.67
2022-11-23T18:34:20.474Z,3.10
2022-11-23T18:36:48.085Z,3.15
2022-11-23T18:39:15.511Z,3.20
2022-11-23T18:41:43.014Z,2.80
2022-11-23T18:44:10.532Z,2.72
2022-11-23T18:46:38.057Z,3.15
2022-11-23T18:49:05.595Z,3.13
2022-11-23T18:51:33.055Z,3.80
2022-11-23T18:54:00.544Z,3.88
2022-11-23T18:56:27.980Z,3.33
2022-11-23T18:58:55.796Z,4.10
2022-11-23T19:01:24.042Z,3.33
2022-11-23T19:03:53.353Z,3.20
2022-11-23T19:06:23.711Z,2.70
2022-11-23T19:08:53.931Z,2.70
2022-11-23T19:11:26.513Z,2.40
2022-11-23T19:13:56.578Z,2.40
2022-11-23T19:16:30.157Z,2.90
2022-11-23T19:19:00.366Z,3.45
2022-11-23T19:21:31.043Z,2.90
2022-11-23T19:23:59.968Z,2.90
2022-11-23T19:26:29.436Z,2.92
2022-11-23T19:28:57.416Z,3.30
2022-11-23T19:31:27.219Z,4.65
2022-11-23T19:33:58.626Z,3.88
2022-11-23T19:36:26.923Z,4.63
2022-11-23T19:38:56.774Z,4.55
2022-11-23T19:41:29.917Z,4.00
2022-11-23T19:43:59.240Z,4.28
2022-11-23T19:46:27.145Z,4.53
2022-11-23T19:48:57.208Z,3.40
2022-11-23T19:51:25.696Z,3.85
2022-11-23T19:53:54.798Z,4.78
2022-11-23T19:56:24.087Z,3.33
2022-11-23T19:58:54.036Z,3.72
2022-11-23T20:01:24.263Z,4.28
2022-11-23T20:03:53.706Z,4.28
2022-11-23T20:06:24.094Z,5.65
2022-11-23T20:08:59.364Z,3.75
2022-11-23T20:11:28.730Z,4.82
2022-11-23T20:13:56.827Z,4.22
2022-11-23T20:16:25.690Z,4.15
2022-11-23T20:18:59.019Z,3.30
2022-11-23T20:21:28.965Z,3.70
2022-11-23T20:24:04.672Z,3.22
2022-11-23T20:26:34.141Z,3.17
2022-11-23T20:29:01.728Z,5.25
2022-11-23T20:31:30.791Z,4.00
2022-11-23T20:33:59.308Z,3.22
2022-11-23T20:36:29.333Z,3.83
2022-11-23T20:38:57.564Z,4.63
2022-11-23T20:41:28.883Z,3.90
2022-11-23T20:43:57.386Z,3.85
2022-11-23T20:46:46.053Z,3.42
2022-11-23T20:49:14.168Z,4.13
2022-11-23T20:51:41.555Z,4.43
2022-11-23T20:54:09.437Z,3.75
2022-11-23T20:56:39.086Z,3.55
2022-11-23T20:59:06.764Z,3.70
2022-11-23T21:01:34.740Z,3.38
2022-11-23T21:04:02.222Z,3.17
2022-11-23T21:06:32.292Z,3.30
2022-11-23T21:09:02.218Z,3.90
2022-11-23T21:11:48.754Z,3.22
2022-11-23T21:14:18.961Z,2.83
2022-11-23T21:16:55.982Z,3.22
2022-11-23T21:19:29.201Z,2.30
2022-11-23T21:21:58.098Z,2.88
2022-11-23T21:24:26.000Z,2.83
2022-11-23T21:26:53.538Z,2.47
2022-11-23T21:29:21.128Z,2.92
2022-11-23T21:31:49.978Z,2.72
2022-11-23T21:34:23.582Z,3.13
2022-11-23T21:36:51.753Z,3.70
2022-11-23T21:39:20.042Z,2.85
2022-11-23T21:41:50.181Z,2.40
2022-11-23T21:44:18.743Z,4.05
2022-11-23T21:46:46.477Z,2.90
2022-11-23T21:49:14.053Z,3.00
2022-11-23T21:51:42.711Z,3.72
2022-11-23T21:54:14.167Z,3.38
2022-11-23T21:56:43.833Z,3.35
2022-11-23T21:59:11.707Z,3.88
2022-11-23T22:01:39.944Z,3.03
2022-11-23T22:04:13.103Z,3.85
2022-11-23T22:06:44.496Z,3.05
2022-11-23T22:09:13.323Z,3.17
2022-11-23T22:11:43.065Z,2.80
2022-11-23T22:14:15.626Z,2.95
2022-11-23T22:16:45.492Z,2.70
2022-11-23T22:19:14.938Z,2.55
2022-11-23T22:21:44.172Z,2.88
2022-11-23T22:24:13.963Z,3.17
2022-11-23T22:26:42.462Z,3.05
2022-11-23T22:29:10.820Z,3.20
2022-11-23T22:31:38.921Z,2.40
2022-11-23T22:34:10.110Z,3.33
2022-11-23T22:36:37.631Z,3.28
2022-11-23T22:39:06.764Z,3.88
2022-11-23T22:41:38.492Z,3.47
2022-11-23T22:44:07.854Z,3.17
2022-11-23T22:46:36.376Z,3.33
2022-11-23T22:49:04.545Z,2.95
2022-11-23T22:51:32.285Z,3.25
2022-11-23T22:54:01.171Z,3.05
2022-11-23T22:56:30.649Z,4.18
2022-11-23T22:58:58.623Z,3.42
2022-11-23T23:01:29.005Z,3.03
2022-11-23T23:04:01.329Z,2.85
2022-11-23T23:06:33.697Z,3.55
2022-11-23T23:09:02.665Z,3.40
2022-11-23T23:11:32.191Z,2.95
2022-11-23T23:14:00.505Z,2.83
2022-11-23T23:16:28.698Z,2.90
2022-11-23T23:18:59.574Z,3.00
2022-11-23T23:21:28.774Z,2.40
2022-11-23T23:23:59.077Z,2.75
2022-11-23T23:26:28.523Z,2.38
2022-11-23T23:29:00.760Z,2.53
2022-11-23T23:31:29.191Z,2.30
2022-11-23T23:33:57.232Z,2.58
2022-11-23T23:36:24.896Z,2.30
2022-11-23T23:38:53.026Z,2.30
2022-11-23T23:41:21.043Z,2.60
2022-11-23T23:43:48.571Z,3.30
2022-11-23T23:46:16.702Z,2.75
2022-11-23T23:48:44.505Z,2.65
2022-11-23T23:51:14.617Z,3.00
2022-11-23T23:53:42.708Z,2.50
2022-11-23T23:56:19.348Z,3.22
2022-11-23T23:58:47.140Z,2.30
